sensor_id;sensor_type;location;lat;lon;timestamp;P1;P2;P0
80692;PMS5003;70055;39.436;-77.514;2024-03-08T00:00:36;0;0;
80692;PMS5003;70055;39.436;-77.514;2024-03-08T00:03:05;1;0;
80692;PMS5003;70055;39.436;-77.514;2024-03-08T00:05:34;0;0;
80692;PMS5003;70055;39.436;-77.514;2024-03-08T00:08:04;0;0;
80692;PMS5003;70055;39.436;-77.514;2024-03-08T00:10:32;0;0;
80692;PMS5003;70055;39.436;-77.514;2024-03-08T00:13:01;0;0;
80692;PMS5003;70055;39.436;-77.514;2024-03-08T00:15:29;0;0;
80692;PMS5003;70055;39.436;-77.514;2024-03-08T00:17:58;0;0;
80692;PMS5003;70055;39.436;-77.514;2024-03-08T00:20:25;0;0;
80692;PMS5003;70055;39.436;-77.514;2024-03-08T00:22:53;1;1;
80692;PMS5003;70055;39.436;-77.514;2024-03-08T00:25:22;0;0;
80692;PMS5003;70055;39.436;-77.514;2024-03-08T00:27:50;0;0;
80692;PMS5003;70055;39.436;-77.514;2024-03-08T00:30:18;0;0;
80692;PMS5003;70055;39.436;-77.514;2024-03-08T00:32:46;0;0;
80692;PMS5003;70055;39.436;-77.514;2024-03-08T00:35:14;0;0;
80692;PMS5003;70055;39.436;-77.514;2024-03-08T00:37:43;0;0;
80692;PMS5003;70055;39.436;-77.514;2024-03-08T00:40:11;1;1;
80692;PMS5003;70055;39.436;-77.514;2024-03-08T00:42:40;0;0;
80692;PMS5003;70055;39.436;-77.514;2024-03-08T00:45:09;0;0;
80692;PMS5003;70055;39.436;-77.514;2024-03-08T00:47:37;0;0;
80692;PMS5003;70055;39.436;-77.514;2024-03-08T00:50:07;0;0;
80692;PMS5003;70055;39.436;-77.514;2024-03-08T00:52:36;0;0;
80692;PMS5003;70055;39.436;-77.514;2024-03-08T00:55:04;0;0;
80692;PMS5003;70055;39.436;-77.514;2024-03-08T00:57:33;0;0;
80692;PMS5003;70055;39.436;-77.514;2024-03-08T01:00:02;0;0;
80692;PMS5003;70055;39.436;-77.514;2024-03-08T01:02:31;0;0;
80692;PMS5003;70055;39.436;-77.514;2024-03-08T01:04:59;0;0;
80692;PMS5003;70055;39.436;-77.514;2024-03-08T01:07:27;1;1;
80692;PMS5003;70055;39.436;-77.514;2024-03-08T01:09:55;0;0;
80692;PMS5003;70055;39.436;-77.514;2024-03-08T01:12:24;0;0;
80692;PMS5003;70055;39.436;-77.514;2024-03-08T01:14:52;0;0;
80692;PMS5003;70055;39.436;-77.514;2024-03-08T01:17:21;0;0;
80692;PMS5003;70055;39.436;-77.514;2024-03-08T01:19:49;0;0;
80692;PMS5003;70055;39.436;-77.514;2024-03-08T01:22:19;0;0;
80692;PMS5003;70055;39.436;-77.514;2024-03-08T01:24:48;0;0;
80692;PMS5003;70055;39.436;-77.514;2024-03-08T01:27:16;0;0;
80692;PMS5003;70055;39.436;-77.514;2024-03-08T01:29:44;0;0;
80692;PMS5003;70055;39.436;-77.514;2024-03-08T01:32:12;0;0;
80692;PMS5003;70055;39.436;-77.514;2024-03-08T01:34:41;0;0;
80692;PMS5003;70055;39.436;-77.514;2024-03-08T01:37:09;0;0;
80692;PMS5003;70055;39.436;-77.514;2024-03-08T01:39:37;0;0;
80692;PMS5003;70055;39.436;-77.514;2024-03-08T01:42:06;0;0;
80692;PMS5003;70055;39.436;-77.514;2024-03-08T01:44:35;1;1;
80692;PMS5003;70055;39.436;-77.514;2024-03-08T01:47:04;1;1;
80692;PMS5003;70055;39.436;-77.514;2024-03-08T01:49:37;0;0;
80692;PMS5003;70055;39.436;-77.514;2024-03-08T01:52:07;0;0;
80692;PMS5003;70055;39.436;-77.514;2024-03-08T01:54:37;1;0;
80692;PMS5003;70055;39.436;-77.514;2024-03-08T01:57:06;0;0;
80692;PMS5003;70055;39.436;-77.514;2024-03-08T01:59:34;0;0;
80692;PMS5003;70055;39.436;-77.514;2024-03-08T02:02:04;0;0;
80692;PMS5003;70055;39.436;-77.514;2024-03-08T02:04:35;0;0;
80692;PMS5003;70055;39.436;-77.514;2024-03-08T02:07:04;0;0;
80692;PMS5003;70055;39.436;-77.514;2024-03-08T02:09:33;1;1;
80692;PMS5003;70055;39.436;-77.514;2024-03-08T02:12:01;0;0;
80692;PMS5003;70055;39.436;-77.514;2024-03-08T02:14:30;0;0;
80692;PMS5003;70055;39.436;-77.514;2024-03-08T02:17:00;0;0;
80692;PMS5003;70055;39.436;-77.514;2024-03-08T02:19:28;0;0;
80692;PMS5003;70055;39.436;-77.514;2024-03-08T02:21:57;2;1;
80692;PMS5003;70055;39.436;-77.514;2024-03-08T02:24:26;1;1;
80692;PMS5003;70055;39.436;-77.514;2024-03-08T02:26:54;0;0;
80692;PMS5003;70055;39.436;-77.514;2024-03-08T02:29:23;1;0;
80692;PMS5003;70055;39.436;-77.514;2024-03-08T02:31:52;1;1;
80692;PMS5003;70055;39.436;-77.514;2024-03-08T02:34:20;1;1;
80692;PMS5003;70055;39.436;-77.514;2024-03-08T02:36:48;0;0;
80692;PMS5003;70055;39.436;-77.514;2024-03-08T02:39:16;1;1;
80692;PMS5003;70055;39.436;-77.514;2024-03-08T02:41:46;2;2;
80692;PMS5003;70055;39.436;-77.514;2024-03-08T02:44:15;1;1;
80692;PMS5003;70055;39.436;-77.514;2024-03-08T02:46:43;1;1;
80692;PMS5003;70055;39.436;-77.514;2024-03-08T02:49:12;1;1;
80692;PMS5003;70055;39.436;-77.514;2024-03-08T02:51:41;1;1;
80692;PMS5003;70055;39.436;-77.514;2024-03-08T02:54:09;1;1;
80692;PMS5003;70055;39.436;-77.514;2024-03-08T02:56:37;1;1;
80692;PMS5003;70055;39.436;-77.514;2024-03-08T02:59:06;1;1;
80692;PMS5003;70055;39.436;-77.514;2024-03-08T03:01:35;2;2;
80692;PMS5003;70055;39.436;-77.514;2024-03-08T03:04:03;2;2;
80692;PMS5003;70055;39.436;-77.514;2024-03-08T03:06:31;1;1;
80692;PMS5003;70055;39.436;-77.514;2024-03-08T03:09:00;2;1;
80692;PMS5003;70055;39.436;-77.514;2024-03-08T03:11:29;1;1;
80692;PMS5003;70055;39.436;-77.514;2024-03-08T03:13:57;2;2;
80692;PMS5003;70055;39.436;-77.514;2024-03-08T03:16:25;3;3;
80692;PMS5003;70055;39.436;-77.514;2024-03-08T03:18:53;1;1;
80692;PMS5003;70055;39.436;-77.514;2024-03-08T03:21:22;1;1;
80692;PMS5003;70055;39.436;-77.514;2024-03-08T03:23:56;1;1;
80692;PMS5003;70055;39.436;-77.514;2024-03-08T03:26:24;1;1;
80692;PMS5003;70055;39.436;-77.514;2024-03-08T03:28:52;3;3;
80692;PMS5003;70055;39.436;-77.514;2024-03-08T03:31:20;2;2;
80692;PMS5003;70055;39.436;-77.514;2024-03-08T03:33:50;1;1;
80692;PMS5003;70055;39.436;-77.514;2024-03-08T03:36:19;2;2;
80692;PMS5003;70055;39.436;-77.514;2024-03-08T03:38:47;2;2;
80692;PMS5003;70055;39.436;-77.514;2024-03-08T03:41:16;2;2;
80692;PMS5003;70055;39.436;-77.514;2024-03-08T03:43:45;2;2;
80692;PMS5003;70055;39.436;-77.514;2024-03-08T03:46:13;3;3;
80692;PMS5003;70055;39.436;-77.514;2024-03-08T03:48:41;1;1;
80692;PMS5003;70055;39.436;-77.514;2024-03-08T03:51:10;3;3;
80692;PMS5003;70055;39.436;-77.514;2024-03-08T03:53:39;2;2;
80692;PMS5003;70055;39.436;-77.514;2024-03-08T03:56:07;2;2;
80692;PMS5003;70055;39.436;-77.514;2024-03-08T03:58:36;2;2;
80692;PMS5003;70055;39.436;-77.514;2024-03-08T04:01:05;2;2;
80692;PMS5003;70055;39.436;-77.514;2024-03-08T04:03:33;4;4;
80692;PMS5003;70055;39.436;-77.514;2024-03-08T04:06:02;3;3;
80692;PMS5003;70055;39.436;-77.514;2024-03-08T04:08:31;3;2;
80692;PMS5003;70055;39.436;-77.514;2024-03-08T04:10:59;3;3;
80692;PMS5003;70055;39.436;-77.514;2024-03-08T04:13:27;2;2;
80692;PMS5003;70055;39.436;-77.514;2024-03-08T04:15:56;3;3;
80692;PMS5003;70055;39.436;-77.514;2024-03-08T04:18:25;2;2;
80692;PMS5003;70055;39.436;-77.514;2024-03-08T04:20:52;2;2;
80692;PMS5003;70055;39.436;-77.514;2024-03-08T04:23:21;3;3;
80692;PMS5003;70055;39.436;-77.514;2024-03-08T04:25:50;3;3;
80692;PMS5003;70055;39.436;-77.514;2024-03-08T04:28:18;4;4;
80692;PMS5003;70055;39.436;-77.514;2024-03-08T04:30:47;4;4;
80692;PMS5003;70055;39.436;-77.514;2024-03-08T04:33:15;3;3;
80692;PMS5003;70055;39.436;-77.514;2024-03-08T04:35:43;3;3;
80692;PMS5003;70055;39.436;-77.514;2024-03-08T04:38:12;3;3;
80692;PMS5003;70055;39.436;-77.514;2024-03-08T04:40:40;2;2;
80692;PMS5003;70055;39.436;-77.514;2024-03-08T04:43:09;3;3;
80692;PMS5003;70055;39.436;-77.514;2024-03-08T04:45:37;5;5;
80692;PMS5003;70055;39.436;-77.514;2024-03-08T04:48:05;5;5;
80692;PMS5003;70055;39.436;-77.514;2024-03-08T04:50:34;5;5;
80692;PMS5003;70055;39.436;-77.514;2024-03-08T04:53:03;4;3;
80692;PMS5003;70055;39.436;-77.514;2024-03-08T04:55:32;4;4;
80692;PMS5003;70055;39.436;-77.514;2024-03-08T04:58:00;4;4;
80692;PMS5003;70055;39.436;-77.514;2024-03-08T05:00:29;5;5;
80692;PMS5003;70055;39.436;-77.514;2024-03-08T05:02:57;4;4;
80692;PMS5003;70055;39.436;-77.514;2024-03-08T05:05:26;3;3;
80692;PMS5003;70055;39.436;-77.514;2024-03-08T05:07:54;3;3;
80692;PMS5003;70055;39.436;-77.514;2024-03-08T05:10:23;5;5;
80692;PMS5003;70055;39.436;-77.514;2024-03-08T05:12:51;4;4;
80692;PMS5003;70055;39.436;-77.514;2024-03-08T05:15:19;3;3;
80692;PMS5003;70055;39.436;-77.514;2024-03-08T05:17:48;4;4;
80692;PMS5003;70055;39.436;-77.514;2024-03-08T05:20:17;4;4;
80692;PMS5003;70055;39.436;-77.514;2024-03-08T05:22:45;4;4;
80692;PMS5003;70055;39.436;-77.514;2024-03-08T05:25:13;4;4;
80692;PMS5003;70055;39.436;-77.514;2024-03-08T05:27:42;4;4;
80692;PMS5003;70055;39.436;-77.514;2024-03-08T05:30:10;7;7;
80692;PMS5003;70055;39.436;-77.514;2024-03-08T05:32:38;4;4;
80692;PMS5003;70055;39.436;-77.514;2024-03-08T05:35:07;6;4;
80692;PMS5003;70055;39.436;-77.514;2024-03-08T05:37:35;6;6;
80692;PMS5003;70055;39.436;-77.514;2024-03-08T05:40:04;6;6;
80692;PMS5003;70055;39.436;-77.514;2024-03-08T05:42:33;6;6;
80692;PMS5003;70055;39.436;-77.514;2024-03-08T05:45:01;6;6;
80692;PMS5003;70055;39.436;-77.514;2024-03-08T05:47:29;4;4;
80692;PMS5003;70055;39.436;-77.514;2024-03-08T05:49:58;4;4;
80692;PMS5003;70055;39.436;-77.514;2024-03-08T05:52:26;4;4;
80692;PMS5003;70055;39.436;-77.514;2024-03-08T05:54:54;6;6;
80692;PMS5003;70055;39.436;-77.514;2024-03-08T05:57:23;6;6;
80692;PMS5003;70055;39.436;-77.514;2024-03-08T05:59:51;8;8;
80692;PMS5003;70055;39.436;-77.514;2024-03-08T06:02:19;6;6;
80692;PMS5003;70055;39.436;-77.514;2024-03-08T06:04:48;7;4;
80692;PMS5003;70055;39.436;-77.514;2024-03-08T06:07:16;8;7;
80692;PMS5003;70055;39.436;-77.514;2024-03-08T06:09:44;6;6;
80692;PMS5003;70055;39.436;-77.514;2024-03-08T06:12:12;7;7;
80692;PMS5003;70055;39.436;-77.514;2024-03-08T06:14:41;6;6;
80692;PMS5003;70055;39.436;-77.514;2024-03-08T06:17:10;7;7;
80692;PMS5003;70055;39.436;-77.514;2024-03-08T06:19:38;4;4;
80692;PMS5003;70055;39.436;-77.514;2024-03-08T06:22:07;6;6;
80692;PMS5003;70055;39.436;-77.514;2024-03-08T06:24:35;6;4;
80692;PMS5003;70055;39.436;-77.514;2024-03-08T06:27:04;6;6;
80692;PMS5003;70055;39.436;-77.514;2024-03-08T06:29:32;4;4;
80692;PMS5003;70055;39.436;-77.514;2024-03-08T06:32:01;4;3;
80692;PMS5003;70055;39.436;-77.514;2024-03-08T06:34:29;4;3;
80692;PMS5003;70055;39.436;-77.514;2024-03-08T06:36:59;6;6;
80692;PMS5003;70055;39.436;-77.514;2024-03-08T06:39:28;6;6;
80692;PMS5003;70055;39.436;-77.514;2024-03-08T06:41:57;4;4;
80692;PMS5003;70055;39.436;-77.514;2024-03-08T06:44:25;4;4;
80692;PMS5003;70055;39.436;-77.514;2024-03-08T06:46:53;4;4;
80692;PMS5003;70055;39.436;-77.514;2024-03-08T06:49:21;4;4;
80692;PMS5003;70055;39.436;-77.514;2024-03-08T06:51:49;4;4;
80692;PMS5003;70055;39.436;-77.514;2024-03-08T06:54:16;6;6;
80692;PMS5003;70055;39.436;-77.514;2024-03-08T06:56:45;4;4;
80692;PMS5003;70055;39.436;-77.514;2024-03-08T06:59:13;3;3;
80692;PMS5003;70055;39.436;-77.514;2024-03-08T07:01:41;6;6;
80692;PMS5003;70055;39.436;-77.514;2024-03-08T07:04:09;4;4;
80692;PMS5003;70055;39.436;-77.514;2024-03-08T07:06:38;9;8;
80692;PMS5003;70055;39.436;-77.514;2024-03-08T07:09:07;4;4;
80692;PMS5003;70055;39.436;-77.514;2024-03-08T07:11:35;3;3;
80692;PMS5003;70055;39.436;-77.514;2024-03-08T07:14:03;3;3;
80692;PMS5003;70055;39.436;-77.514;2024-03-08T07:16:31;4;3;
80692;PMS5003;70055;39.436;-77.514;2024-03-08T07:19:00;3;3;
80692;PMS5003;70055;39.436;-77.514;2024-03-08T07:21:29;3;3;
80692;PMS5003;70055;39.436;-77.514;2024-03-08T07:23:56;3;3;
80692;PMS5003;70055;39.436;-77.514;2024-03-08T07:26:25;3;3;
80692;PMS5003;70055;39.436;-77.514;2024-03-08T07:28:53;4;4;
80692;PMS5003;70055;39.436;-77.514;2024-03-08T07:31:21;2;2;
80692;PMS5003;70055;39.436;-77.514;2024-03-08T07:33:50;3;3;
80692;PMS5003;70055;39.436;-77.514;2024-03-08T07:36:18;3;2;
80692;PMS5003;70055;39.436;-77.514;2024-03-08T07:38:46;4;4;
80692;PMS5003;70055;39.436;-77.514;2024-03-08T07:41:15;2;2;
80692;PMS5003;70055;39.436;-77.514;2024-03-08T07:43:43;3;3;
80692;PMS5003;70055;39.436;-77.514;2024-03-08T07:46:12;2;2;
80692;PMS5003;70055;39.436;-77.514;2024-03-08T07:48:41;3;3;
80692;PMS5003;70055;39.436;-77.514;2024-03-08T07:51:09;3;3;
80692;PMS5003;70055;39.436;-77.514;2024-03-08T07:53:37;2;2;
80692;PMS5003;70055;39.436;-77.514;2024-03-08T07:56:05;2;2;
80692;PMS5003;70055;39.436;-77.514;2024-03-08T07:58:33;3;3;
80692;PMS5003;70055;39.436;-77.514;2024-03-08T08:01:02;3;3;
80692;PMS5003;70055;39.436;-77.514;2024-03-08T08:03:30;3;3;
80692;PMS5003;70055;39.436;-77.514;2024-03-08T08:05:58;2;2;
80692;PMS5003;70055;39.436;-77.514;2024-03-08T08:08:27;3;3;
80692;PMS5003;70055;39.436;-77.514;2024-03-08T08:10:55;2;2;
80692;PMS5003;70055;39.436;-77.514;2024-03-08T08:13:24;3;3;
80692;PMS5003;70055;39.436;-77.514;2024-03-08T08:15:53;1;1;
80692;PMS5003;70055;39.436;-77.514;2024-03-08T08:18:21;3;3;
80692;PMS5003;70055;39.436;-77.514;2024-03-08T08:20:48;3;3;
80692;PMS5003;70055;39.436;-77.514;2024-03-08T08:23:16;4;4;
80692;PMS5003;70055;39.436;-77.514;2024-03-08T08:25:45;2;2;
80692;PMS5003;70055;39.436;-77.514;2024-03-08T08:28:12;2;2;
80692;PMS5003;70055;39.436;-77.514;2024-03-08T08:30:40;2;2;
80692;PMS5003;70055;39.436;-77.514;2024-03-08T08:33:08;2;2;
80692;PMS5003;70055;39.436;-77.514;2024-03-08T08:35:36;2;2;
80692;PMS5003;70055;39.436;-77.514;2024-03-08T08:38:05;2;2;
80692;PMS5003;70055;39.436;-77.514;2024-03-08T08:40:33;2;2;
80692;PMS5003;70055;39.436;-77.514;2024-03-08T08:43:01;2;2;
80692;PMS5003;70055;39.436;-77.514;2024-03-08T08:45:30;3;3;
80692;PMS5003;70055;39.436;-77.514;2024-03-08T08:47:58;3;3;
80692;PMS5003;70055;39.436;-77.514;2024-03-08T08:50:27;3;3;
80692;PMS5003;70055;39.436;-77.514;2024-03-08T08:52:55;3;3;
80692;PMS5003;70055;39.436;-77.514;2024-03-08T08:55:23;3;3;
80692;PMS5003;70055;39.436;-77.514;2024-03-08T08:57:51;2;2;
80692;PMS5003;70055;39.436;-77.514;2024-03-08T09:00:20;3;3;
80692;PMS5003;70055;39.436;-77.514;2024-03-08T09:02:49;4;3;
80692;PMS5003;70055;39.436;-77.514;2024-03-08T09:05:17;3;3;
80692;PMS5003;70055;39.436;-77.514;2024-03-08T09:07:45;2;2;
80692;PMS5003;70055;39.436;-77.514;2024-03-08T09:10:14;3;3;
80692;PMS5003;70055;39.436;-77.514;2024-03-08T09:12:43;3;3;
80692;PMS5003;70055;39.436;-77.514;2024-03-08T09:15:11;3;3;
80692;PMS5003;70055;39.436;-77.514;2024-03-08T09:17:40;3;3;
80692;PMS5003;70055;39.436;-77.514;2024-03-08T09:20:08;5;5;
80692;PMS5003;70055;39.436;-77.514;2024-03-08T09:22:37;3;3;
80692;PMS5003;70055;39.436;-77.514;2024-03-08T09:25:05;3;3;
80692;PMS5003;70055;39.436;-77.514;2024-03-08T09:27:34;3;3;
80692;PMS5003;70055;39.436;-77.514;2024-03-08T09:30:03;3;3;
80692;PMS5003;70055;39.436;-77.514;2024-03-08T09:32:31;2;2;
80692;PMS5003;70055;39.436;-77.514;2024-03-08T09:34:59;2;2;
80692;PMS5003;70055;39.436;-77.514;2024-03-08T09:37:28;4;4;
80692;PMS5003;70055;39.436;-77.514;2024-03-08T09:39:56;3;3;
80692;PMS5003;70055;39.436;-77.514;2024-03-08T09:42:25;3;3;
80692;PMS5003;70055;39.436;-77.514;2024-03-08T09:44:53;4;4;
80692;PMS5003;70055;39.436;-77.514;2024-03-08T09:47:22;2;2;
80692;PMS5003;70055;39.436;-77.514;2024-03-08T09:49:54;3;3;
80692;PMS5003;70055;39.436;-77.514;2024-03-08T09:52:23;4;4;
80692;PMS5003;70055;39.436;-77.514;2024-03-08T09:54:51;2;2;
80692;PMS5003;70055;39.436;-77.514;2024-03-08T09:57:19;2;2;
80692;PMS5003;70055;39.436;-77.514;2024-03-08T09:59:47;3;3;
80692;PMS5003;70055;39.436;-77.514;2024-03-08T10:02:16;2;2;
80692;PMS5003;70055;39.436;-77.514;2024-03-08T10:04:44;4;4;
80692;PMS5003;70055;39.436;-77.514;2024-03-08T10:07:12;3;3;
80692;PMS5003;70055;39.436;-77.514;2024-03-08T10:09:41;3;3;
80692;PMS5003;70055;39.436;-77.514;2024-03-08T10:12:10;3;3;
80692;PMS5003;70055;39.436;-77.514;2024-03-08T10:14:39;3;3;
80692;PMS5003;70055;39.436;-77.514;2024-03-08T10:17:08;2;2;
80692;PMS5003;70055;39.436;-77.514;2024-03-08T10:19:36;3;3;
80692;PMS5003;70055;39.436;-77.514;2024-03-08T10:22:04;2;2;
80692;PMS5003;70055;39.436;-77.514;2024-03-08T10:24:33;3;3;
80692;PMS5003;70055;39.436;-77.514;2024-03-08T10:27:02;5;3;
80692;PMS5003;70055;39.436;-77.514;2024-03-08T10:29:31;2;2;
80692;PMS5003;70055;39.436;-77.514;2024-03-08T10:32:00;6;6;
80692;PMS5003;70055;39.436;-77.514;2024-03-08T10:34:29;4;3;
80692;PMS5003;70055;39.436;-77.514;2024-03-08T10:36:59;2;2;
80692;PMS5003;70055;39.436;-77.514;2024-03-08T10:39:33;3;3;
80692;PMS5003;70055;39.436;-77.514;2024-03-08T10:42:04;4;4;
80692;PMS5003;70055;39.436;-77.514;2024-03-08T10:44:40;3;3;
80692;PMS5003;70055;39.436;-77.514;2024-03-08T10:47:18;4;4;
80692;PMS5003;70055;39.436;-77.514;2024-03-08T10:49:54;2;2;
80692;PMS5003;70055;39.436;-77.514;2024-03-08T10:52:26;6;6;
80692;PMS5003;70055;39.436;-77.514;2024-03-08T10:54:55;4;4;
80692;PMS5003;70055;39.436;-77.514;2024-03-08T10:57:25;5;5;
80692;PMS5003;70055;39.436;-77.514;2024-03-08T10:59:55;6;6;
80692;PMS5003;70055;39.436;-77.514;2024-03-08T11:02:23;5;5;
80692;PMS5003;70055;39.436;-77.514;2024-03-08T11:04:53;5;5;
80692;PMS5003;70055;39.436;-77.514;2024-03-08T11:07:22;5;3;
80692;PMS5003;70055;39.436;-77.514;2024-03-08T11:09:51;3;3;
80692;PMS5003;70055;39.436;-77.514;2024-03-08T11:12:20;5;5;
80692;PMS5003;70055;39.436;-77.514;2024-03-08T11:14:50;7;7;
80692;PMS5003;70055;39.436;-77.514;2024-03-08T11:17:22;7;6;
80692;PMS5003;70055;39.436;-77.514;2024-03-08T11:20:10;5;5;
80692;PMS5003;70055;39.436;-77.514;2024-03-08T11:22:40;7;6;
80692;PMS5003;70055;39.436;-77.514;2024-03-08T11:25:30;5;5;
80692;PMS5003;70055;39.436;-77.514;2024-03-08T11:28:10;8;7;
80692;PMS5003;70055;39.436;-77.514;2024-03-08T11:30:39;6;6;
80692;PMS5003;70055;39.436;-77.514;2024-03-08T11:33:11;5;3;
80692;PMS5003;70055;39.436;-77.514;2024-03-08T11:35:40;6;6;
80692;PMS5003;70055;39.436;-77.514;2024-03-08T11:38:10;6;6;
80692;PMS5003;70055;39.436;-77.514;2024-03-08T11:40:39;6;6;
80692;PMS5003;70055;39.436;-77.514;2024-03-08T11:43:07;7;6;
80692;PMS5003;70055;39.436;-77.514;2024-03-08T11:45:35;5;5;
80692;PMS5003;70055;39.436;-77.514;2024-03-08T11:48:05;6;6;
80692;PMS5003;70055;39.436;-77.514;2024-03-08T11:50:34;6;6;
80692;PMS5003;70055;39.436;-77.514;2024-03-08T11:53:03;7;6;
80692;PMS5003;70055;39.436;-77.514;2024-03-08T11:55:33;8;8;
80692;PMS5003;70055;39.436;-77.514;2024-03-08T11:58:02;6;6;
80692;PMS5003;70055;39.436;-77.514;2024-03-08T12:00:32;5;5;
80692;PMS5003;70055;39.436;-77.514;2024-03-08T12:03:01;6;6;
80692;PMS5003;70055;39.436;-77.514;2024-03-08T12:05:30;5;5;
80692;PMS5003;70055;39.436;-77.514;2024-03-08T12:07:59;6;6;
80692;PMS5003;70055;39.436;-77.514;2024-03-08T12:10:28;3;3;
80692;PMS5003;70055;39.436;-77.514;2024-03-08T12:12:57;5;5;
80692;PMS5003;70055;39.436;-77.514;2024-03-08T12:15:27;6;6;
80692;PMS5003;70055;39.436;-77.514;2024-03-08T12:17:57;8;7;
80692;PMS5003;70055;39.436;-77.514;2024-03-08T12:20:26;4;4;
80692;PMS5003;70055;39.436;-77.514;2024-03-08T12:22:55;8;8;
80692;PMS5003;70055;39.436;-77.514;2024-03-08T12:25:26;7;7;
80692;PMS5003;70055;39.436;-77.514;2024-03-08T12:28:06;6;6;
80692;PMS5003;70055;39.436;-77.514;2024-03-08T12:30:34;7;7;
80692;PMS5003;70055;39.436;-77.514;2024-03-08T12:33:11;3;3;
80692;PMS5003;70055;39.436;-77.514;2024-03-08T12:35:41;6;6;
80692;PMS5003;70055;39.436;-77.514;2024-03-08T12:38:17;6;6;
80692;PMS5003;70055;39.436;-77.514;2024-03-08T12:40:48;6;6;
80692;PMS5003;70055;39.436;-77.514;2024-03-08T12:43:16;6;6;
80692;PMS5003;70055;39.436;-77.514;2024-03-08T12:45:46;7;6;
80692;PMS5003;70055;39.436;-77.514;2024-03-08T12:48:14;6;6;
80692;PMS5003;70055;39.436;-77.514;2024-03-08T12:50:42;6;6;
80692;PMS5003;70055;39.436;-77.514;2024-03-08T12:53:11;3;3;
80692;PMS5003;70055;39.436;-77.514;2024-03-08T12:55:40;6;6;
80692;PMS5003;70055;39.436;-77.514;2024-03-08T12:58:08;6;6;
80692;PMS5003;70055;39.436;-77.514;2024-03-08T13:00:38;4;4;
80692;PMS5003;70055;39.436;-77.514;2024-03-08T13:03:06;6;6;
80692;PMS5003;70055;39.436;-77.514;2024-03-08T13:05:35;6;4;
80692;PMS5003;70055;39.436;-77.514;2024-03-08T13:08:04;4;4;
80692;PMS5003;70055;39.436;-77.514;2024-03-08T13:10:33;4;4;
80692;PMS5003;70055;39.436;-77.514;2024-03-08T13:13:01;4;4;
80692;PMS5003;70055;39.436;-77.514;2024-03-08T13:15:29;4;4;
80692;PMS5003;70055;39.436;-77.514;2024-03-08T13:17:58;7;4;
80692;PMS5003;70055;39.436;-77.514;2024-03-08T13:20:26;4;4;
80692;PMS5003;70055;39.436;-77.514;2024-03-08T13:22:54;6;6;
80692;PMS5003;70055;39.436;-77.514;2024-03-08T13:25:23;7;6;
80692;PMS5003;70055;39.436;-77.514;2024-03-08T13:27:52;6;6;
80692;PMS5003;70055;39.436;-77.514;2024-03-08T13:30:22;3;3;
80692;PMS5003;70055;39.436;-77.514;2024-03-08T13:32:51;7;6;
80692;PMS5003;70055;39.436;-77.514;2024-03-08T13:35:21;5;5;
80692;PMS5003;70055;39.436;-77.514;2024-03-08T13:37:49;4;4;
80692;PMS5003;70055;39.436;-77.514;2024-03-08T13:40:18;4;4;
80692;PMS5003;70055;39.436;-77.514;2024-03-08T13:42:46;5;5;
80692;PMS5003;70055;39.436;-77.514;2024-03-08T13:45:15;5;5;
80692;PMS5003;70055;39.436;-77.514;2024-03-08T13:47:43;5;5;
80692;PMS5003;70055;39.436;-77.514;2024-03-08T13:50:13;4;4;
80692;PMS5003;70055;39.436;-77.514;2024-03-08T13:52:42;7;5;
80692;PMS5003;70055;39.436;-77.514;2024-03-08T13:55:11;4;4;
80692;PMS5003;70055;39.436;-77.514;2024-03-08T13:57:39;5;5;
80692;PMS5003;70055;39.436;-77.514;2024-03-08T14:00:08;4;4;
80692;PMS5003;70055;39.436;-77.514;2024-03-08T14:02:37;4;4;
80692;PMS5003;70055;39.436;-77.514;2024-03-08T14:05:06;7;7;
80692;PMS5003;70055;39.436;-77.514;2024-03-08T14:07:33;4;4;
80692;PMS5003;70055;39.436;-77.514;2024-03-08T14:10:02;4;4;
80692;PMS5003;70055;39.436;-77.514;2024-03-08T14:12:32;3;3;
80692;PMS5003;70055;39.436;-77.514;2024-03-08T14:15:01;7;7;
80692;PMS5003;70055;39.436;-77.514;2024-03-08T14:17:30;5;5;
80692;PMS5003;70055;39.436;-77.514;2024-03-08T14:19:59;4;4;
80692;PMS5003;70055;39.436;-77.514;2024-03-08T14:22:27;5;4;
80692;PMS5003;70055;39.436;-77.514;2024-03-08T14:24:55;7;7;
80692;PMS5003;70055;39.436;-77.514;2024-03-08T14:27:24;4;4;
80692;PMS5003;70055;39.436;-77.514;2024-03-08T14:29:53;4;4;
80692;PMS5003;70055;39.436;-77.514;2024-03-08T14:32:23;5;4;
80692;PMS5003;70055;39.436;-77.514;2024-03-08T14:34:51;5;5;
80692;PMS5003;70055;39.436;-77.514;2024-03-08T14:37:20;3;3;
80692;PMS5003;70055;39.436;-77.514;2024-03-08T14:39:49;4;4;
80692;PMS5003;70055;39.436;-77.514;2024-03-08T14:42:18;4;4;
80692;PMS5003;70055;39.436;-77.514;2024-03-08T14:44:46;5;5;
80692;PMS5003;70055;39.436;-77.514;2024-03-08T14:47:16;4;4;
80692;PMS5003;70055;39.436;-77.514;2024-03-08T14:49:45;4;4;
80692;PMS5003;70055;39.436;-77.514;2024-03-08T14:52:14;3;3;
80692;PMS5003;70055;39.436;-77.514;2024-03-08T14:54:43;4;4;
80692;PMS5003;70055;39.436;-77.514;2024-03-08T14:57:11;5;5;
80692;PMS5003;70055;39.436;-77.514;2024-03-08T14:59:41;4;4;
80692;PMS5003;70055;39.436;-77.514;2024-03-08T15:02:09;5;5;
80692;PMS5003;70055;39.436;-77.514;2024-03-08T15:04:39;4;4;
80692;PMS5003;70055;39.436;-77.514;2024-03-08T15:07:07;6;5;
80692;PMS5003;70055;39.436;-77.514;2024-03-08T15:09:36;5;5;
80692;PMS5003;70055;39.436;-77.514;2024-03-08T15:12:04;6;5;
80692;PMS5003;70055;39.436;-77.514;2024-03-08T15:14:32;6;6;
80692;PMS5003;70055;39.436;-77.514;2024-03-08T15:17:01;5;5;
80692;PMS5003;70055;39.436;-77.514;2024-03-08T15:19:30;5;4;
80692;PMS5003;70055;39.436;-77.514;2024-03-08T15:21:58;4;4;
80692;PMS5003;70055;39.436;-77.514;2024-03-08T15:24:27;5;5;
80692;PMS5003;70055;39.436;-77.514;2024-03-08T15:26:55;6;5;
80692;PMS5003;70055;39.436;-77.514;2024-03-08T15:29:24;4;4;
80692;PMS5003;70055;39.436;-77.514;2024-03-08T15:31:52;6;5;
80692;PMS5003;70055;39.436;-77.514;2024-03-08T15:34:21;6;6;
80692;PMS5003;70055;39.436;-77.514;2024-03-08T15:36:49;4;4;
80692;PMS5003;70055;39.436;-77.514;2024-03-08T15:39:18;7;7;
80692;PMS5003;70055;39.436;-77.514;2024-03-08T15:41:47;5;5;
80692;PMS5003;70055;39.436;-77.514;2024-03-08T15:44:16;6;6;
80692;PMS5003;70055;39.436;-77.514;2024-03-08T15:46:44;4;4;
80692;PMS5003;70055;39.436;-77.514;2024-03-08T15:49:13;7;6;
80692;PMS5003;70055;39.436;-77.514;2024-03-08T15:51:41;5;5;
80692;PMS5003;70055;39.436;-77.514;2024-03-08T15:54:11;6;6;
80692;PMS5003;70055;39.436;-77.514;2024-03-08T15:56:39;6;6;
80692;PMS5003;70055;39.436;-77.514;2024-03-08T15:59:08;4;4;
80692;PMS5003;70055;39.436;-77.514;2024-03-08T16:01:36;5;5;
80692;PMS5003;70055;39.436;-77.514;2024-03-08T16:04:05;6;6;
80692;PMS5003;70055;39.436;-77.514;2024-03-08T16:06:33;5;5;
80692;PMS5003;70055;39.436;-77.514;2024-03-08T16:09:02;6;6;
80692;PMS5003;70055;39.436;-77.514;2024-03-08T16:11:31;5;5;
80692;PMS5003;70055;39.436;-77.514;2024-03-08T16:14:00;6;6;
80692;PMS5003;70055;39.436;-77.514;2024-03-08T16:16:28;7;7;
80692;PMS5003;70055;39.436;-77.514;2024-03-08T16:18:57;6;6;
80692;PMS5003;70055;39.436;-77.514;2024-03-08T16:21:26;6;6;
80692;PMS5003;70055;39.436;-77.514;2024-03-08T16:23:54;8;7;
80692;PMS5003;70055;39.436;-77.514;2024-03-08T16:26:22;7;7;
80692;PMS5003;70055;39.436;-77.514;2024-03-08T16:28:52;9;8;